sensor_id;sensor_type;location;lat;lon;timestamp;P1;durP1;ratioP1;P2;durP2;ratioP2
28335;SDS011;15592;53.656;7.276;2022-10-15T00:02:10;69.75;;;34.53;;
28335;SDS011;15592;53.656;7.276;2022-10-15T00:04:36;72.35;;;36.28;;
28335;SDS011;15592;53.656;7.276;2022-10-15T00:07:02;76.38;;;36.55;;
28335;SDS011;15592;53.656;7.276;2022-10-15T00:09:28;76.22;;;36.20;;
28335;SDS011;15592;53.656;7.276;2022-10-15T00:11:54;73.85;;;37.38;;
28335;SDS011;15592;53.656;7.276;2022-10-15T00:14:19;78.50;;;36.95;;
28335;SDS011;15592;53.656;7.276;2022-10-15T00:16:45;71.50;;;35.53;;
28335;SDS011;15592;53.656;7.276;2022-10-15T00:19:11;70.38;;;35.03;;
28335;SDS011;15592;53.656;7.276;2022-10-15T00:21:37;72.07;;;36.63;;
28335;SDS011;15592;53.656;7.276;2022-10-15T00:24:03;91.20;;;39.20;;
28335;SDS011;15592;53.656;7.276;2022-10-15T00:26:30;84.25;;;38.95;;
28335;SDS011;15592;53.656;7.276;2022-10-15T00:28:56;75.88;;;37.28;;
28335;SDS011;15592;53.656;7.276;2022-10-15T00:31:25;78.32;;;39.28;;
28335;SDS011;15592;53.656;7.276;2022-10-15T00:33:55;78.03;;;38.85;;
28335;SDS011;15592;53.656;7.276;2022-10-15T00:36:24;77.82;;;40.22;;
28335;SDS011;15592;53.656;7.276;2022-10-15T00:38:51;79.18;;;40.13;;
28335;SDS011;15592;53.656;7.276;2022-10-15T00:41:22;77.85;;;40.70;;
28335;SDS011;15592;53.656;7.276;2022-10-15T00:43:50;72.90;;;37.70;;
28335;SDS011;15592;53.656;7.276;2022-10-15T00:48:50;77.63;;;37.83;;
28335;SDS011;15592;53.656;7.276;2022-10-15T00:51:35;85.82;;;41.60;;
28335;SDS011;15592;53.656;7.276;2022-10-15T00:54:08;87.05;;;42.80;;
28335;SDS011;15592;53.656;7.276;2022-10-15T00:56:35;81.68;;;42.05;;
28335;SDS011;15592;53.656;7.276;2022-10-15T00:59:02;98.25;;;47.22;;
28335;SDS011;15592;53.656;7.276;2022-10-15T01:01:29;89.70;;;42.97;;
28335;SDS011;15592;53.656;7.276;2022-10-15T01:03:55;99.90;;;46.03;;
28335;SDS011;15592;53.656;7.276;2022-10-15T01:06:22;99.93;;;44.88;;
28335;SDS011;15592;53.656;7.276;2022-10-15T01:08:48;91.45;;;44.50;;
28335;SDS011;15592;53.656;7.276;2022-10-15T01:31:15;90.28;;;41.75;;
28335;SDS011;15592;53.656;7.276;2022-10-15T01:36:47;114.85;;;46.85;;
28335;SDS011;15592;53.656;7.276;2022-10-15T01:39:24;121.07;;;50.53;;
28335;SDS011;15592;53.656;7.276;2022-10-15T01:41:53;116.30;;;52.03;;
28335;SDS011;15592;53.656;7.276;2022-10-15T01:46:50;121.57;;;52.47;;
28335;SDS011;15592;53.656;7.276;2022-10-15T01:49:23;111.18;;;48.75;;
28335;SDS011;15592;53.656;7.276;2022-10-15T01:51:52;117.10;;;48.97;;
28335;SDS011;15592;53.656;7.276;2022-10-15T01:54:19;116.70;;;48.90;;
28335;SDS011;15592;53.656;7.276;2022-10-15T01:56:49;118.00;;;48.20;;
28335;SDS011;15592;53.656;7.276;2022-10-15T01:59:17;110.35;;;49.38;;
28335;SDS011;15592;53.656;7.276;2022-10-15T02:01:46;113.57;;;49.28;;
28335;SDS011;15592;53.656;7.276;2022-10-15T02:04:21;113.40;;;50.83;;
28335;SDS011;15592;53.656;7.276;2022-10-15T02:07:08;112.63;;;49.15;;
28335;SDS011;15592;53.656;7.276;2022-10-15T02:18:04;116.28;;;50.72;;
28335;SDS011;15592;53.656;7.276;2022-10-15T02:20:47;126.10;;;52.70;;
28335;SDS011;15592;53.656;7.276;2022-10-15T02:23:24;126.15;;;52.22;;
28335;SDS011;15592;53.656;7.276;2022-10-15T02:25:55;131.32;;;54.53;;
28335;SDS011;15592;53.656;7.276;2022-10-15T02:28:22;136.02;;;55.42;;
28335;SDS011;15592;53.656;7.276;2022-10-15T02:30:49;147.13;;;57.42;;
28335;SDS011;15592;53.656;7.276;2022-10-15T02:33:17;156.18;;;62.05;;
28335;SDS011;15592;53.656;7.276;2022-10-15T02:35:45;160.43;;;60.15;;
28335;SDS011;15592;53.656;7.276;2022-10-15T02:38:14;162.02;;;62.58;;
28335;SDS011;15592;53.656;7.276;2022-10-15T02:40:43;169.13;;;66.05;;
28335;SDS011;15592;53.656;7.276;2022-10-15T02:43:10;146.40;;;60.15;;
28335;SDS011;15592;53.656;7.276;2022-10-15T02:45:38;141.18;;;58.60;;
28335;SDS011;15592;53.656;7.276;2022-10-15T02:48:04;132.88;;;55.45;;
28335;SDS011;15592;53.656;7.276;2022-10-15T02:50:30;130.02;;;54.75;;
28335;SDS011;15592;53.656;7.276;2022-10-15T02:52:56;118.32;;;54.20;;
28335;SDS011;15592;53.656;7.276;2022-10-15T02:55:21;130.93;;;54.53;;
28335;SDS011;15592;53.656;7.276;2022-10-15T02:57:47;128.18;;;54.08;;
28335;SDS011;15592;53.656;7.276;2022-10-15T03:00:13;123.75;;;54.65;;
28335;SDS011;15592;53.656;7.276;2022-10-15T03:02:39;131.48;;;54.35;;
28335;SDS011;15592;53.656;7.276;2022-10-15T03:05:04;137.52;;;55.17;;
28335;SDS011;15592;53.656;7.276;2022-10-15T03:07:30;128.32;;;55.05;;
28335;SDS011;15592;53.656;7.276;2022-10-15T03:09:56;138.18;;;56.38;;
28335;SDS011;15592;53.656;7.276;2022-10-15T03:12:21;137.90;;;57.67;;
28335;SDS011;15592;53.656;7.276;2022-10-15T03:14:49;122.75;;;54.40;;
28335;SDS011;15592;53.656;7.276;2022-10-15T03:17:15;138.45;;;56.65;;
28335;SDS011;15592;53.656;7.276;2022-10-15T03:19:41;134.25;;;55.35;;
28335;SDS011;15592;53.656;7.276;2022-10-15T03:22:06;129.73;;;52.13;;
28335;SDS011;15592;53.656;7.276;2022-10-15T03:24:32;130.15;;;53.08;;
28335;SDS011;15592;53.656;7.276;2022-10-15T03:26:58;115.13;;;50.50;;
28335;SDS011;15592;53.656;7.276;2022-10-15T03:29:23;108.88;;;48.20;;
28335;SDS011;15592;53.656;7.276;2022-10-15T03:31:49;104.63;;;46.83;;
28335;SDS011;15592;53.656;7.276;2022-10-15T03:34:15;100.50;;;45.22;;
28335;SDS011;15592;53.656;7.276;2022-10-15T03:36:41;102.30;;;45.50;;
28335;SDS011;15592;53.656;7.276;2022-10-15T03:39:07;99.45;;;45.10;;
28335;SDS011;15592;53.656;7.276;2022-10-15T03:41:33;110.88;;;49.75;;
28335;SDS011;15592;53.656;7.276;2022-10-15T03:44:02;121.55;;;52.28;;
28335;SDS011;15592;53.656;7.276;2022-10-15T03:46:29;133.10;;;58.40;;
28335;SDS011;15592;53.656;7.276;2022-10-15T03:48:55;130.45;;;56.28;;
28335;SDS011;15592;53.656;7.276;2022-10-15T03:51:21;124.25;;;55.22;;
28335;SDS011;15592;53.656;7.276;2022-10-15T03:53:47;138.23;;;58.60;;
28335;SDS011;15592;53.656;7.276;2022-10-15T03:56:12;126.10;;;54.00;;
28335;SDS011;15592;53.656;7.276;2022-10-15T03:58:38;114.93;;;52.92;;
28335;SDS011;15592;53.656;7.276;2022-10-15T04:01:10;120.43;;;51.22;;
28335;SDS011;15592;53.656;7.276;2022-10-15T04:03:38;114.13;;;50.25;;
28335;SDS011;15592;53.656;7.276;2022-10-15T04:06:04;103.75;;;48.45;;
28335;SDS011;15592;53.656;7.276;2022-10-15T04:08:30;116.00;;;52.25;;
28335;SDS011;15592;53.656;7.276;2022-10-15T04:10:56;116.25;;;52.10;;
28335;SDS011;15592;53.656;7.276;2022-10-15T04:13:23;122.82;;;54.13;;
28335;SDS011;15592;53.656;7.276;2022-10-15T04:15:49;119.20;;;52.90;;
28335;SDS011;15592;53.656;7.276;2022-10-15T04:18:15;130.55;;;58.70;;
28335;SDS011;15592;53.656;7.276;2022-10-15T04:20:40;128.25;;;56.20;;
28335;SDS011;15592;53.656;7.276;2022-10-15T04:23:07;126.97;;;57.42;;
28335;SDS011;15592;53.656;7.276;2022-10-15T04:25:34;121.05;;;54.60;;
28335;SDS011;15592;53.656;7.276;2022-10-15T04:28:01;120.20;;;54.28;;
28335;SDS011;15592;53.656;7.276;2022-10-15T04:30:26;143.80;;;60.13;;
28335;SDS011;15592;53.656;7.276;2022-10-15T04:32:52;124.75;;;55.08;;
28335;SDS011;15592;53.656;7.276;2022-10-15T04:35:18;130.90;;;58.28;;
28335;SDS011;15592;53.656;7.276;2022-10-15T04:37:45;140.75;;;61.83;;
28335;SDS011;15592;53.656;7.276;2022-10-15T04:40:10;127.80;;;57.05;;
28335;SDS011;15592;53.656;7.276;2022-10-15T04:42:37;138.65;;;61.45;;
28335;SDS011;15592;53.656;7.276;2022-10-15T04:45:04;134.55;;;60.80;;
28335;SDS011;15592;53.656;7.276;2022-10-15T04:47:30;133.43;;;60.20;;
28335;SDS011;15592;53.656;7.276;2022-10-15T04:49:56;135.02;;;61.17;;
28335;SDS011;15592;53.656;7.276;2022-10-15T04:52:21;132.57;;;61.75;;
28335;SDS011;15592;53.656;7.276;2022-10-15T04:54:47;142.88;;;64.28;;
28335;SDS011;15592;53.656;7.276;2022-10-15T04:57:13;133.05;;;61.60;;
28335;SDS011;15592;53.656;7.276;2022-10-15T04:59:38;131.32;;;61.22;;
28335;SDS011;15592;53.656;7.276;2022-10-15T05:02:04;142.30;;;62.20;;
28335;SDS011;15592;53.656;7.276;2022-10-15T05:04:30;127.10;;;57.53;;
28335;SDS011;15592;53.656;7.276;2022-10-15T05:06:56;122.60;;;56.53;;
28335;SDS011;15592;53.656;7.276;2022-10-15T05:09:21;114.97;;;52.72;;
28335;SDS011;15592;53.656;7.276;2022-10-15T05:11:47;114.30;;;52.80;;
28335;SDS011;15592;53.656;7.276;2022-10-15T05:14:13;111.38;;;53.17;;
28335;SDS011;15592;53.656;7.276;2022-10-15T05:16:39;122.38;;;55.08;;
28335;SDS011;15592;53.656;7.276;2022-10-15T05:19:05;129.25;;;57.50;;
28335;SDS011;15592;53.656;7.276;2022-10-15T05:21:32;115.82;;;56.50;;
28335;SDS011;15592;53.656;7.276;2022-10-15T05:23:59;124.28;;;57.25;;
28335;SDS011;15592;53.656;7.276;2022-10-15T05:26:26;112.95;;;55.65;;
28335;SDS011;15592;53.656;7.276;2022-10-15T05:28:54;112.28;;;54.47;;
28335;SDS011;15592;53.656;7.276;2022-10-15T05:31:21;108.32;;;51.10;;
28335;SDS011;15592;53.656;7.276;2022-10-15T05:33:50;108.25;;;53.28;;
28335;SDS011;15592;53.656;7.276;2022-10-15T05:36:17;111.78;;;52.08;;
28335;SDS011;15592;53.656;7.276;2022-10-15T05:38:52;109.85;;;52.35;;
28335;SDS011;15592;53.656;7.276;2022-10-15T05:41:22;114.30;;;53.85;;
28335;SDS011;15592;53.656;7.276;2022-10-15T05:43:50;96.70;;;48.30;;
28335;SDS011;15592;53.656;7.276;2022-10-15T05:46:16;104.05;;;51.40;;
28335;SDS011;15592;53.656;7.276;2022-10-15T05:48:46;107.68;;;52.22;;
28335;SDS011;15592;53.656;7.276;2022-10-15T05:51:16;109.20;;;54.22;;
28335;SDS011;15592;53.656;7.276;2022-10-15T05:53:42;109.68;;;52.30;;
28335;SDS011;15592;53.656;7.276;2022-10-15T05:56:10;108.03;;;51.63;;
28335;SDS011;15592;53.656;7.276;2022-10-15T05:58:36;106.55;;;51.75;;
28335;SDS011;15592;53.656;7.276;2022-10-15T06:01:03;106.90;;;52.08;;
28335;SDS011;15592;53.656;7.276;2022-10-15T06:03:31;110.45;;;54.00;;
28335;SDS011;15592;53.656;7.276;2022-10-15T06:05:57;112.47;;;53.30;;
28335;SDS011;15592;53.656;7.276;2022-10-15T06:08:23;114.45;;;57.22;;
28335;SDS011;15592;53.656;7.276;2022-10-15T06:10:48;111.78;;;54.00;;
28335;SDS011;15592;53.656;7.276;2022-10-15T06:13:14;115.45;;;56.65;;
28335;SDS011;15592;53.656;7.276;2022-10-15T06:15:40;122.47;;;57.90;;
28335;SDS011;15592;53.656;7.276;2022-10-15T06:18:07;127.10;;;60.17;;
28335;SDS011;15592;53.656;7.276;2022-10-15T06:20:34;122.38;;;58.63;;
28335;SDS011;15592;53.656;7.276;2022-10-15T06:23:01;124.35;;;57.60;;
28335;SDS011;15592;53.656;7.276;2022-10-15T06:25:28;128.02;;;57.60;;
28335;SDS011;15592;53.656;7.276;2022-10-15T06:27:53;114.20;;;55.13;;
28335;SDS011;15592;53.656;7.276;2022-10-15T06:30:19;130.93;;;58.30;;
28335;SDS011;15592;53.656;7.276;2022-10-15T06:32:46;120.18;;;57.55;;
28335;SDS011;15592;53.656;7.276;2022-10-15T06:35:13;126.72;;;58.47;;
28335;SDS011;15592;53.656;7.276;2022-10-15T06:37:38;125.57;;;58.17;;
28335;SDS011;15592;53.656;7.276;2022-10-15T06:40:04;117.90;;;55.38;;
28335;SDS011;15592;53.656;7.276;2022-10-15T06:42:30;128.50;;;59.13;;
28335;SDS011;15592;53.656;7.276;2022-10-15T06:44:56;137.52;;;59.67;;
28335;SDS011;15592;53.656;7.276;2022-10-15T06:47:21;126.90;;;58.33;;
28335;SDS011;15592;53.656;7.276;2022-10-15T06:49:47;134.43;;;62.10;;
28335;SDS011;15592;53.656;7.276;2022-10-15T06:52:13;121.75;;;55.83;;
28335;SDS011;15592;53.656;7.276;2022-10-15T06:54:38;133.10;;;59.78;;
28335;SDS011;15592;53.656;7.276;2022-10-15T06:57:04;143.52;;;62.17;;
28335;SDS011;15592;53.656;7.276;2022-10-15T06:59:29;142.73;;;61.03;;
28335;SDS011;15592;53.656;7.276;2022-10-15T07:01:55;138.23;;;62.58;;
28335;SDS011;15592;53.656;7.276;2022-10-15T07:04:21;134.68;;;59.00;;
28335;SDS011;15592;53.656;7.276;2022-10-15T07:06:48;131.57;;;57.70;;
28335;SDS011;15592;53.656;7.276;2022-10-15T07:09:14;145.20;;;60.17;;
28335;SDS011;15592;53.656;7.276;2022-10-15T07:11:39;138.48;;;61.42;;
28335;SDS011;15592;53.656;7.276;2022-10-15T07:14:05;138.32;;;60.72;;
28335;SDS011;15592;53.656;7.276;2022-10-15T07:16:31;141.30;;;62.05;;
28335;SDS011;15592;53.656;7.276;2022-10-15T07:18:57;147.85;;;62.13;;
28335;SDS011;15592;53.656;7.276;2022-10-15T07:21:22;140.25;;;59.95;;
28335;SDS011;15592;53.656;7.276;2022-10-15T07:23:48;143.13;;;61.40;;
28335;SDS011;15592;53.656;7.276;2022-10-15T07:26:14;146.90;;;61.90;;
28335;SDS011;15592;53.656;7.276;2022-10-15T07:28:39;150.18;;;64.97;;
28335;SDS011;15592;53.656;7.276;2022-10-15T07:31:06;153.68;;;63.47;;
28335;SDS011;15592;53.656;7.276;2022-10-15T07:33:32;142.23;;;61.88;;
28335;SDS011;15592;53.656;7.276;2022-10-15T07:36:04;140.97;;;61.07;;
28335;SDS011;15592;53.656;7.276;2022-10-15T07:38:32;141.15;;;61.22;;
28335;SDS011;15592;53.656;7.276;2022-10-15T07:40:59;161.75;;;64.90;;
28335;SDS011;15592;53.656;7.276;2022-10-15T07:43:25;164.73;;;67.13;;
28335;SDS011;15592;53.656;7.276;2022-10-15T07:45:52;167.85;;;67.88;;
28335;SDS011;15592;53.656;7.276;2022-10-15T07:48:18;154.68;;;62.65;;
28335;SDS011;15592;53.656;7.276;2022-10-15T07:50:44;160.02;;;65.90;;
28335;SDS011;15592;53.656;7.276;2022-10-15T07:53:10;161.27;;;64.95;;
28335;SDS011;15592;53.656;7.276;2022-10-15T07:55:36;172.88;;;66.07;;
28335;SDS011;15592;53.656;7.276;2022-10-15T07:58:02;161.55;;;64.65;;
28335;SDS011;15592;53.656;7.276;2022-10-15T08:00:30;158.88;;;65.65;;
28335;SDS011;15592;53.656;7.276;2022-10-15T08:02:56;162.38;;;64.70;;
28335;SDS011;15592;53.656;7.276;2022-10-15T08:05:22;170.73;;;68.00;;
28335;SDS011;15592;53.656;7.276;2022-10-15T08:07:48;164.63;;;66.07;;
28335;SDS011;15592;53.656;7.276;2022-10-15T08:10:14;178.52;;;67.70;;
28335;SDS011;15592;53.656;7.276;2022-10-15T08:12:40;173.55;;;67.47;;
28335;SDS011;15592;53.656;7.276;2022-10-15T08:15:06;177.88;;;70.10;;
28335;SDS011;15592;53.656;7.276;2022-10-15T08:17:31;170.90;;;68.72;;
28335;SDS011;15592;53.656;7.276;2022-10-15T08:19:57;162.43;;;64.68;;
28335;SDS011;15592;53.656;7.276;2022-10-15T08:22:23;170.88;;;66.63;;
28335;SDS011;15592;53.656;7.276;2022-10-15T08:24:48;173.45;;;69.70;;
28335;SDS011;15592;53.656;7.276;2022-10-15T08:27:14;177.10;;;67.82;;
28335;SDS011;15592;53.656;7.276;2022-10-15T08:29:40;166.50;;;65.55;;
28335;SDS011;15592;53.656;7.276;2022-10-15T08:32:05;169.75;;;66.35;;
28335;SDS011;15592;53.656;7.276;2022-10-15T08:34:31;168.25;;;68.20;;
28335;SDS011;15592;53.656;7.276;2022-10-15T08:36:57;166.32;;;65.47;;
28335;SDS011;15592;53.656;7.276;2022-10-15T08:39:22;171.73;;;67.43;;
28335;SDS011;15592;53.656;7.276;2022-10-15T08:41:55;188.93;;;73.07;;
28335;SDS011;15592;53.656;7.276;2022-10-15T08:44:27;170.25;;;69.47;;
28335;SDS011;15592;53.656;7.276;2022-10-15T08:46:57;156.68;;;64.70;;
28335;SDS011;15592;53.656;7.276;2022-10-15T08:54:52;174.07;;;68.60;;
28335;SDS011;15592;53.656;7.276;2022-10-15T08:58:03;163.18;;;68.57;;
28335;SDS011;15592;53.656;7.276;2022-10-15T09:00:33;167.60;;;66.85;;
28335;SDS011;15592;53.656;7.276;2022-10-15T09:03:08;175.40;;;70.30;;
28335;SDS011;15592;53.656;7.276;2022-10-15T09:08:37;181.45;;;69.50;;
28335;SDS011;15592;53.656;7.276;2022-10-15T09:14:19;180.52;;;72.88;;
28335;SDS011;15592;53.656;7.276;2022-10-15T09:17:22;185.02;;;74.25;;
28335;SDS011;15592;53.656;7.276;2022-10-15T09:19:53;187.73;;;74.65;;
28335;SDS011;15592;53.656;7.276;2022-10-15T09:22:22;193.93;;;74.90;;
28335;SDS011;15592;53.656;7.276;2022-10-15T09:24:52;179.45;;;71.50;;
28335;SDS011;15592;53.656;7.276;2022-10-15T09:27:29;170.32;;;68.60;;
28335;SDS011;15592;53.656;7.276;2022-10-15T09:35:51;160.82;;;65.30;;
28335;SDS011;15592;53.656;7.276;2022-10-15T09:38:49;154.07;;;66.65;;
28335;SDS011;15592;53.656;7.276;2022-10-15T09:44:07;154.02;;;64.70;;
28335;SDS011;15592;53.656;7.276;2022-10-15T09:46:42;151.98;;;61.67;;
28335;SDS011;15592;53.656;7.276;2022-10-15T09:49:16;148.60;;;60.10;;
28335;SDS011;15592;53.656;7.276;2022-10-15T09:54:17;126.10;;;56.08;;
28335;SDS011;15592;53.656;7.276;2022-10-15T09:56:54;125.57;;;54.17;;
28335;SDS011;15592;53.656;7.276;2022-10-15T09:59:21;120.72;;;52.75;;
28335;SDS011;15592;53.656;7.276;2022-10-15T10:02:02;116.10;;;53.83;;
28335;SDS011;15592;53.656;7.276;2022-10-15T10:04:31;116.05;;;48.83;;
28335;SDS011;15592;53.656;7.276;2022-10-15T10:07:05;119.38;;;51.47;;
28335;SDS011;15592;53.656;7.276;2022-10-15T10:09:47;103.10;;;48.50;;
28335;SDS011;15592;53.656;7.276;2022-10-15T10:12:24;100.30;;;49.38;;
28335;SDS011;15592;53.656;7.276;2022-10-15T10:14:59;93.97;;;47.58;;
28335;SDS011;15592;53.656;7.276;2022-10-15T10:17:29;94.95;;;48.17;;
28335;SDS011;15592;53.656;7.276;2022-10-15T10:27:52;97.18;;;53.25;;
28335;SDS011;15592;53.656;7.276;2022-10-15T10:30:18;92.00;;;51.83;;
28335;SDS011;15592;53.656;7.276;2022-10-15T10:32:44;92.28;;;51.47;;
28335;SDS011;15592;53.656;7.276;2022-10-15T10:35:18;90.00;;;50.35;;
28335;SDS011;15592;53.656;7.276;2022-10-15T10:37:46;88.72;;;50.22;;
28335;SDS011;15592;53.656;7.276;2022-10-15T10:40:21;80.07;;;45.63;;
28335;SDS011;15592;53.656;7.276;2022-10-15T10:45:51;83.55;;;47.72;;
28335;SDS011;15592;53.656;7.276;2022-10-15T10:48:18;73.70;;;43.38;;
28335;SDS011;15592;53.656;7.276;2022-10-15T10:50:45;79.38;;;45.58;;
28335;SDS011;15592;53.656;7.276;2022-10-15T10:56:12;64.82;;;40.15;;
28335;SDS011;15592;53.656;7.276;2022-10-15T10:58:39;72.97;;;42.25;;
28335;SDS011;15592;53.656;7.276;2022-10-15T11:01:08;68.13;;;42.13;;
28335;SDS011;15592;53.656;7.276;2022-10-15T11:03:40;69.32;;;42.38;;
28335;SDS011;15592;53.656;7.276;2022-10-15T11:15:16;55.53;;;38.03;;
28335;SDS011;15592;53.656;7.276;2022-10-15T11:18:01;56.90;;;36.88;;
28335;SDS011;15592;53.656;7.276;2022-10-15T11:37:14;57.42;;;38.65;;
28335;SDS011;15592;53.656;7.276;2022-10-15T11:44:55;64.03;;;41.28;;
28335;SDS011;15592;53.656;7.276;2022-10-15T11:47:37;62.17;;;40.40;;
28335;SDS011;15592;53.656;7.276;2022-10-15T11:50:15;63.90;;;42.33;;
28335;SDS011;15592;53.656;7.276;2022-10-15T12:00:53;59.95;;;35.35;;
28335;SDS011;15592;53.656;7.276;2022-10-15T12:03:24;53.90;;;31.05;;
28335;SDS011;15592;53.656;7.276;2022-10-15T12:05:57;55.13;;;30.03;;
28335;SDS011;15592;53.656;7.276;2022-10-15T12:08:29;54.03;;;29.20;;
28335;SDS011;15592;53.656;7.276;2022-10-15T12:11:01;52.75;;;30.13;;
28335;SDS011;15592;53.656;7.276;2022-10-15T12:13:47;59.33;;;29.33;;
28335;SDS011;15592;53.656;7.276;2022-10-15T12:16:24;44.97;;;25.08;;
28335;SDS011;15592;53.656;7.276;2022-10-15T12:29:49;53.30;;;27.80;;
28335;SDS011;15592;53.656;7.276;2022-10-15T12:32:24;48.78;;;27.10;;
28335;SDS011;15592;53.656;7.276;2022-10-15T12:34:56;47.15;;;26.83;;
28335;SDS011;15592;53.656;7.276;2022-10-15T12:37:24;46.05;;;28.17;;
28335;SDS011;15592;53.656;7.276;2022-10-15T12:39:56;51.45;;;29.35;;
28335;SDS011;15592;53.656;7.276;2022-10-15T12:44:52;48.78;;;27.67;;
28335;SDS011;15592;53.656;7.276;2022-10-15T12:50:19;51.60;;;28.30;;
28335;SDS011;15592;53.656;7.276;2022-10-15T12:55:29;44.60;;;28.00;;
28335;SDS011;15592;53.656;7.276;2022-10-15T13:00:47;47.25;;;27.85;;
28335;SDS011;15592;53.656;7.276;2022-10-15T13:03:14;46.42;;;28.10;;
28335;SDS011;15592;53.656;7.276;2022-10-15T13:05:40;47.20;;;27.35;;
28335;SDS011;15592;53.656;7.276;2022-10-15T13:08:11;47.40;;;27.73;;
28335;SDS011;15592;53.656;7.276;2022-10-15T13:10:48;46.70;;;28.63;;
28335;SDS011;15592;53.656;7.276;2022-10-15T13:13:19;43.47;;;27.55;;
28335;SDS011;15592;53.656;7.276;2022-10-15T13:15:58;43.97;;;27.25;;
28335;SDS011;15592;53.656;7.276;2022-10-15T13:18:25;43.40;;;27.20;;
28335;SDS011;15592;53.656;7.276;2022-10-15T13:20:53;40.38;;;25.92;;
28335;SDS011;15592;53.656;7.276;2022-10-15T13:23:21;39.72;;;26.15;;
28335;SDS011;15592;53.656;7.276;2022-10-15T13:25:50;41.50;;;25.95;;
28335;SDS011;15592;53.656;7.276;2022-10-15T13:28:32;38.15;;;23.45;;
28335;SDS011;15592;53.656;7.276;2022-10-15T13:31:02;36.78;;;24.02;;
28335;SDS011;15592;53.656;7.276;2022-10-15T13:33:32;36.95;;;24.90;;
28335;SDS011;15592;53.656;7.276;2022-10-15T13:36:04;38.67;;;24.33;;
28335;SDS011;15592;53.656;7.276;2022-10-15T13:38:31;37.97;;;25.05;;
28335;SDS011;15592;53.656;7.276;2022-10-15T13:40:58;37.70;;;24.20;;
28335;SDS011;15592;53.656;7.276;2022-10-15T13:43:25;36.50;;;23.50;;
28335;SDS011;15592;53.656;7.276;2022-10-15T13:45:55;37.83;;;24.95;;
28335;SDS011;15592;53.656;7.276;2022-10-15T13:48:23;35.80;;;23.95;;
28335;SDS011;15592;53.656;7.276;2022-10-15T13:51:00;39.53;;;25.48;;
28335;SDS011;15592;53.656;7.276;2022-10-15T13:55:56;36.85;;;23.30;;
28335;SDS011;15592;53.656;7.276;2022-10-15T13:58:29;35.42;;;24.70;;
28335;SDS011;15592;53.656;7.276;2022-10-15T14:00:59;37.03;;;24.30;;
28335;SDS011;15592;53.656;7.276;2022-10-15T14:06:07;35.05;;;23.42;;
28335;SDS011;15592;53.656;7.276;2022-10-15T14:08:55;37.38;;;23.05;;
28335;SDS011;15592;53.656;7.276;2022-10-15T14:11:44;34.35;;;23.27;;
28335;SDS011;15592;53.656;7.276;2022-10-15T14:16:58;32.28;;;21.00;;
28335;SDS011;15592;53.656;7.276;2022-10-15T14:19:25;32.75;;;21.38;;
28335;SDS011;15592;53.656;7.276;2022-10-15T14:21:54;31.25;;;21.83;;
28335;SDS011;15592;53.656;7.276;2022-10-15T14:27:01;34.08;;;21.48;;
28335;SDS011;15592;53.656;7.276;2022-10-15T14:29:39;33.45;;;21.98;;
28335;SDS011;15592;53.656;7.276;2022-10-15T14:35:00;31.45;;;21.50;;
28335;SDS011;15592;53.656;7.276;2022-10-15T14:40:02;36.38;;;23.05;;
28335;SDS011;15592;53.656;7.276;2022-10-15T14:42:44;33.45;;;21.27;;
28335;SDS011;15592;53.656;7.276;2022-10-15T14:45:27;29.83;;;19.85;;
28335;SDS011;15592;53.656;7.276;2022-10-15T14:47:56;30.40;;;20.17;;
28335;SDS011;15592;53.656;7.276;2022-10-15T14:50:25;31.33;;;20.13;;
28335;SDS011;15592;53.656;7.276;2022-10-15T14:55:34;28.80;;;19.80;;
28335;SDS011;15592;53.656;7.276;2022-10-15T14:58:08;29.63;;;19.30;;
28335;SDS011;15592;53.656;7.276;2022-10-15T15:00:42;31.65;;;20.40;;
28335;SDS011;15592;53.656;7.276;2022-10-15T15:03:15;32.42;;;19.90;;
28335;SDS011;15592;53.656;7.276;2022-10-15T15:05:55;27.40;;;18.45;;
28335;SDS011;15592;53.656;7.276;2022-10-15T15:08:22;27.92;;;17.83;;
28335;SDS011;15592;53.656;7.276;2022-10-15T15:10:49;28.13;;;18.02;;
28335;SDS011;15592;53.656;7.276;2022-10-15T15:13:26;27.88;;;17.08;;
28335;SDS011;15592;53.656;7.276;2022-10-15T15:15:53;28.45;;;17.60;;
28335;SDS011;15592;53.656;7.276;2022-10-15T15:18:19;25.25;;;15.68;;
28335;SDS011;15592;53.656;7.276;2022-10-15T15:20:45;23.67;;;15.32;;
28335;SDS011;15592;53.656;7.276;2022-10-15T15:23:24;22.45;;;15.00;;
28335;SDS011;15592;53.656;7.276;2022-10-15T15:25:51;22.60;;;14.98;;
28335;SDS011;15592;53.656;7.276;2022-10-15T15:28:19;21.73;;;14.75;;
28335;SDS011;15592;53.656;7.276;2022-10-15T15:30:54;24.77;;;15.43;;
28335;SDS011;15592;53.656;7.276;2022-10-15T15:33:21;24.10;;;15.13;;
28335;SDS011;15592;53.656;7.276;2022-10-15T15:35:48;22.90;;;15.68;;
28335;SDS011;15592;53.656;7.276;2022-10-15T15:38:20;25.45;;;15.52;;
28335;SDS011;15592;53.656;7.276;2022-10-15T15:40:47;24.73;;;15.98;;
28335;SDS011;15592;53.656;7.276;2022-10-15T15:43:14;24.80;;;16.13;;
28335;SDS011;15592;53.656;7.276;2022-10-15T15:45:42;23.63;;;15.88;;
28335;SDS011;15592;53.656;7.276;2022-10-15T15:48:08;25.15;;;16.05;;
28335;SDS011;15592;53.656;7.276;2022-10-15T15:50:34;26.65;;;16.70;;
28335;SDS011;15592;53.656;7.276;2022-10-15T15:53:00;24.33;;;16.48;;
28335;SDS011;15592;53.656;7.276;2022-10-15T15:55:26;25.10;;;16.45;;
28335;SDS011;15592;53.656;7.276;2022-10-15T15:57:52;28.73;;;17.98;;
28335;SDS011;15592;53.656;7.276;2022-10-15T16:00:18;26.63;;;17.75;;
28335;SDS011;15592;53.656;7.276;2022-10-15T16:02:43;31.92;;;19.30;;
28335;SDS011;15592;53.656;7.276;2022-10-15T16:05:10;27.40;;;18.40;;
28335;SDS011;15592;53.656;7.276;2022-10-15T16:07:38;32.97;;;20.40;;
28335;SDS011;15592;53.656;7.276;2022-10-15T16:10:04;27.42;;;18.52;;
28335;SDS011;15592;53.656;7.276;2022-10-15T16:12:33;31.13;;;18.85;;
28335;SDS011;15592;53.656;7.276;2022-10-15T16:14:59;26.90;;;17.65;;
28335;SDS011;15592;53.656;7.276;2022-10-15T16:17:25;28.67;;;18.40;;
28335;SDS011;15592;53.656;7.276;2022-10-15T16:19:51;32.08;;;19.85;;
28335;SDS011;15592;53.656;7.276;2022-10-15T16:22:16;31.70;;;19.95;;
28335;SDS011;15592;53.656;7.276;2022-10-15T16:24:42;30.80;;;18.42;;
28335;SDS011;15592;53.656;7.276;2022-10-15T16:27:08;28.00;;;17.45;;
28335;SDS011;15592;53.656;7.276;2022-10-15T16:29:33;27.08;;;17.35;;
28335;SDS011;15592;53.656;7.276;2022-10-15T16:31:59;26.58;;;18.27;;
28335;SDS011;15592;53.656;7.276;2022-10-15T16:34:25;32.47;;;18.98;;
28335;SDS011;15592;53.656;7.276;2022-10-15T16:36:51;29.13;;;18.27;;
28335;SDS011;15592;53.656;7.276;2022-10-15T16:39:17;25.77;;;16.65;;
28335;SDS011;15592;53.656;7.276;2022-10-15T16:41:42;22.60;;;15.40;;
28335;SDS011;15592;53.656;7.276;2022-10-15T16:44:08;23.60;;;15.63;;
28335;SDS011;15592;53.656;7.276;2022-10-15T16:46:33;25.15;;;16.45;;
28335;SDS011;15592;53.656;7.276;2022-10-15T16:48:59;29.73;;;17.02;;
28335;SDS011;15592;53.656;7.276;2022-10-15T16:51:25;27.17;;;16.52;;
28335;SDS011;15592;53.656;7.276;2022-10-15T16:53:51;27.10;;;17.75;;
28335;SDS011;15592;53.656;7.276;2022-10-15T16:58:45;24.42;;;15.88;;